sensor_id;sensor_type;location;lat;lon;timestamp;P1;durP1;ratioP1;P2;durP2;ratioP2
60610;SDS011;46439;51.164;13.572;2023-05-10T00:00:59;5.10;;;2.50;;
60610;SDS011;46439;51.164;13.572;2023-05-10T00:03:28;4.10;;;2.60;;
60610;SDS011;46439;51.164;13.572;2023-05-10T00:05:56;3.80;;;2.60;;
60610;SDS011;46439;51.164;13.572;2023-05-10T00:08:25;5.10;;;2.20;;
60610;SDS011;46439;51.164;13.572;2023-05-10T00:10:53;6.60;;;2.30;;
60610;SDS011;46439;51.164;13.572;2023-05-10T00:13:23;3.70;;;2.70;;
60610;SDS011;46439;51.164;13.572;2023-05-10T00:15:52;3.20;;;2.50;;
60610;SDS011;46439;51.164;13.572;2023-05-10T00:18:20;3.20;;;2.30;;
60610;SDS011;46439;51.164;13.572;2023-05-10T00:21:02;3.20;;;2.20;;
60610;SDS011;46439;51.164;13.572;2023-05-10T00:23:31;4.00;;;2.40;;
60610;SDS011;46439;51.164;13.572;2023-05-10T00:26:00;3.70;;;2.50;;
60610;SDS011;46439;51.164;13.572;2023-05-10T00:28:28;5.20;;;2.50;;
60610;SDS011;46439;51.164;13.572;2023-05-10T00:30:57;4.10;;;2.40;;
60610;SDS011;46439;51.164;13.572;2023-05-10T00:33:25;6.10;;;2.50;;
60610;SDS011;46439;51.164;13.572;2023-05-10T00:35:54;3.40;;;2.40;;
60610;SDS011;46439;51.164;13.572;2023-05-10T00:38:22;3.40;;;2.40;;
60610;SDS011;46439;51.164;13.572;2023-05-10T00:40:51;3.30;;;2.20;;
60610;SDS011;46439;51.164;13.572;2023-05-10T00:43:19;4.90;;;2.50;;
60610;SDS011;46439;51.164;13.572;2023-05-10T00:45:47;5.10;;;2.50;;
60610;SDS011;46439;51.164;13.572;2023-05-10T00:48:16;3.40;;;2.30;;
60610;SDS011;46439;51.164;13.572;2023-05-10T00:50:45;4.90;;;2.60;;
60610;SDS011;46439;51.164;13.572;2023-05-10T00:53:14;2.50;;;2.30;;
60610;SDS011;46439;51.164;13.572;2023-05-10T00:55:43;3.00;;;2.20;;
60610;SDS011;46439;51.164;13.572;2023-05-10T00:58:12;5.10;;;2.40;;
60610;SDS011;46439;51.164;13.572;2023-05-10T01:00:40;3.10;;;2.50;;
60610;SDS011;46439;51.164;13.572;2023-05-10T01:03:12;4.10;;;2.50;;
60610;SDS011;46439;51.164;13.572;2023-05-10T01:05:41;3.50;;;2.20;;
60610;SDS011;46439;51.164;13.572;2023-05-10T01:08:09;5.10;;;2.60;;
60610;SDS011;46439;51.164;13.572;2023-05-10T01:10:38;4.50;;;2.30;;
60610;SDS011;46439;51.164;13.572;2023-05-10T01:13:07;5.60;;;2.30;;
60610;SDS011;46439;51.164;13.572;2023-05-10T01:15:36;7.30;;;2.50;;
60610;SDS011;46439;51.164;13.572;2023-05-10T01:18:05;3.70;;;2.40;;
60610;SDS011;46439;51.164;13.572;2023-05-10T01:20:38;3.60;;;2.30;;
60610;SDS011;46439;51.164;13.572;2023-05-10T01:23:17;3.00;;;2.30;;
60610;SDS011;46439;51.164;13.572;2023-05-10T01:29:13;4.50;;;2.30;;
60610;SDS011;46439;51.164;13.572;2023-05-10T01:34:51;5.40;;;2.40;;
60610;SDS011;46439;51.164;13.572;2023-05-10T01:37:28;3.70;;;2.10;;
60610;SDS011;46439;51.164;13.572;2023-05-10T01:40:06;2.80;;;2.30;;
60610;SDS011;46439;51.164;13.572;2023-05-10T01:42:43;2.80;;;2.20;;
60610;SDS011;46439;51.164;13.572;2023-05-10T01:45:20;3.10;;;2.20;;
60610;SDS011;46439;51.164;13.572;2023-05-10T01:47:57;5.30;;;2.40;;
60610;SDS011;46439;51.164;13.572;2023-05-10T01:50:30;2.90;;;2.10;;
60610;SDS011;46439;51.164;13.572;2023-05-10T01:53:02;4.60;;;2.30;;
60610;SDS011;46439;51.164;13.572;2023-05-10T01:55:34;2.80;;;2.30;;
60610;SDS011;46439;51.164;13.572;2023-05-10T01:58:08;3.50;;;2.30;;
60610;SDS011;46439;51.164;13.572;2023-05-10T02:00:42;4.60;;;2.50;;
60610;SDS011;46439;51.164;13.572;2023-05-10T02:03:12;5.00;;;2.40;;
60610;SDS011;46439;51.164;13.572;2023-05-10T02:05:42;3.10;;;2.20;;
60610;SDS011;46439;51.164;13.572;2023-05-10T02:08:13;5.10;;;2.30;;
60610;SDS011;46439;51.164;13.572;2023-05-10T02:10:44;3.20;;;2.40;;
60610;SDS011;46439;51.164;13.572;2023-05-10T02:13:14;4.10;;;2.50;;
60610;SDS011;46439;51.164;13.572;2023-05-10T02:15:48;3.60;;;2.00;;
60610;SDS011;46439;51.164;13.572;2023-05-10T02:18:18;2.50;;;2.20;;
60610;SDS011;46439;51.164;13.572;2023-05-10T02:20:47;3.10;;;2.20;;
60610;SDS011;46439;51.164;13.572;2023-05-10T02:23:16;4.90;;;2.30;;
60610;SDS011;46439;51.164;13.572;2023-05-10T02:25:46;7.30;;;2.50;;
60610;SDS011;46439;51.164;13.572;2023-05-10T02:28:18;3.90;;;2.60;;
60610;SDS011;46439;51.164;13.572;2023-05-10T02:30:48;3.80;;;2.40;;
60610;SDS011;46439;51.164;13.572;2023-05-10T02:33:17;4.90;;;2.40;;
60610;SDS011;46439;51.164;13.572;2023-05-10T02:35:47;3.90;;;2.20;;
60610;SDS011;46439;51.164;13.572;2023-05-10T02:38:17;5.00;;;2.20;;
60610;SDS011;46439;51.164;13.572;2023-05-10T02:40:48;2.40;;;2.20;;
60610;SDS011;46439;51.164;13.572;2023-05-10T02:43:17;3.80;;;2.40;;
60610;SDS011;46439;51.164;13.572;2023-05-10T02:45:49;3.90;;;2.30;;
60610;SDS011;46439;51.164;13.572;2023-05-10T02:48:18;2.40;;;2.10;;
60610;SDS011;46439;51.164;13.572;2023-05-10T02:50:47;4.00;;;2.30;;
60610;SDS011;46439;51.164;13.572;2023-05-10T02:53:18;3.10;;;2.20;;
60610;SDS011;46439;51.164;13.572;2023-05-10T02:55:50;4.80;;;2.40;;
60610;SDS011;46439;51.164;13.572;2023-05-10T02:58:23;2.80;;;2.30;;
60610;SDS011;46439;51.164;13.572;2023-05-10T03:00:53;2.60;;;2.00;;
60610;SDS011;46439;51.164;13.572;2023-05-10T03:03:21;4.00;;;2.30;;
60610;SDS011;46439;51.164;13.572;2023-05-10T03:05:50;3.10;;;2.20;;
60610;SDS011;46439;51.164;13.572;2023-05-10T03:08:22;3.60;;;2.20;;
60610;SDS011;46439;51.164;13.572;2023-05-10T03:10:54;6.90;;;2.40;;
60610;SDS011;46439;51.164;13.572;2023-05-10T03:13:35;4.90;;;2.40;;
60610;SDS011;46439;51.164;13.572;2023-05-10T03:16:10;5.00;;;2.20;;
60610;SDS011;46439;51.164;13.572;2023-05-10T03:18:43;6.00;;;2.30;;
60610;SDS011;46439;51.164;13.572;2023-05-10T03:21:17;3.80;;;2.40;;
60610;SDS011;46439;51.164;13.572;2023-05-10T03:23:50;4.10;;;2.30;;
60610;SDS011;46439;51.164;13.572;2023-05-10T03:26:26;4.70;;;2.00;;
60610;SDS011;46439;51.164;13.572;2023-05-10T03:28:55;5.00;;;2.20;;
60610;SDS011;46439;51.164;13.572;2023-05-10T03:31:25;2.80;;;2.10;;
60610;SDS011;46439;51.164;13.572;2023-05-10T03:33:54;4.90;;;2.40;;
60610;SDS011;46439;51.164;13.572;2023-05-10T03:36:22;4.70;;;2.20;;
60610;SDS011;46439;51.164;13.572;2023-05-10T03:38:51;3.00;;;2.40;;
60610;SDS011;46439;51.164;13.572;2023-05-10T03:41:19;3.80;;;2.30;;
60610;SDS011;46439;51.164;13.572;2023-05-10T03:43:48;3.50;;;2.30;;
60610;SDS011;46439;51.164;13.572;2023-05-10T03:46:16;4.80;;;2.50;;
60610;SDS011;46439;51.164;13.572;2023-05-10T03:48:45;3.30;;;2.20;;
60610;SDS011;46439;51.164;13.572;2023-05-10T03:51:13;2.80;;;2.20;;
60610;SDS011;46439;51.164;13.572;2023-05-10T03:53:42;3.20;;;2.20;;
60610;SDS011;46439;51.164;13.572;2023-05-10T03:56:10;4.40;;;2.10;;
60610;SDS011;46439;51.164;13.572;2023-05-10T03:58:39;4.50;;;2.10;;
60610;SDS011;46439;51.164;13.572;2023-05-10T04:01:07;3.20;;;2.40;;
60610;SDS011;46439;51.164;13.572;2023-05-10T04:03:36;3.70;;;2.50;;
60610;SDS011;46439;51.164;13.572;2023-05-10T04:06:05;2.40;;;2.20;;
60610;SDS011;46439;51.164;13.572;2023-05-10T04:08:37;7.00;;;2.50;;
60610;SDS011;46439;51.164;13.572;2023-05-10T04:11:06;4.20;;;2.60;;
60610;SDS011;46439;51.164;13.572;2023-05-10T04:13:37;4.30;;;2.40;;
60610;SDS011;46439;51.164;13.572;2023-05-10T04:16:06;3.00;;;2.00;;
60610;SDS011;46439;51.164;13.572;2023-05-10T04:18:34;3.50;;;2.40;;
60610;SDS011;46439;51.164;13.572;2023-05-10T04:21:03;3.30;;;2.50;;
60610;SDS011;46439;51.164;13.572;2023-05-10T04:23:37;4.70;;;2.20;;
60610;SDS011;46439;51.164;13.572;2023-05-10T04:26:06;3.50;;;2.10;;
60610;SDS011;46439;51.164;13.572;2023-05-10T04:28:35;3.40;;;2.30;;
60610;SDS011;46439;51.164;13.572;2023-05-10T04:31:04;4.80;;;2.30;;
60610;SDS011;46439;51.164;13.572;2023-05-10T04:33:34;4.90;;;2.50;;
60610;SDS011;46439;51.164;13.572;2023-05-10T04:36:03;4.50;;;3.00;;
60610;SDS011;46439;51.164;13.572;2023-05-10T04:38:32;6.20;;;2.30;;
60610;SDS011;46439;51.164;13.572;2023-05-10T04:41:07;4.00;;;2.10;;
60610;SDS011;46439;51.164;13.572;2023-05-10T04:43:37;5.30;;;2.40;;
60610;SDS011;46439;51.164;13.572;2023-05-10T04:46:06;3.80;;;2.10;;
60610;SDS011;46439;51.164;13.572;2023-05-10T04:48:34;4.90;;;2.30;;
60610;SDS011;46439;51.164;13.572;2023-05-10T04:51:03;5.40;;;2.40;;
60610;SDS011;46439;51.164;13.572;2023-05-10T04:53:33;2.60;;;2.20;;
60610;SDS011;46439;51.164;13.572;2023-05-10T04:56:01;3.80;;;2.10;;
60610;SDS011;46439;51.164;13.572;2023-05-10T04:58:30;2.40;;;2.20;;
60610;SDS011;46439;51.164;13.572;2023-05-10T05:00:59;6.30;;;2.50;;
60610;SDS011;46439;51.164;13.572;2023-05-10T05:03:34;3.70;;;2.20;;
60610;SDS011;46439;51.164;13.572;2023-05-10T05:06:03;5.90;;;2.10;;
60610;SDS011;46439;51.164;13.572;2023-05-10T05:08:32;4.00;;;2.30;;
60610;SDS011;46439;51.164;13.572;2023-05-10T05:11:01;3.10;;;2.30;;
60610;SDS011;46439;51.164;13.572;2023-05-10T05:13:29;4.40;;;2.00;;
60610;SDS011;46439;51.164;13.572;2023-05-10T05:15:59;5.60;;;2.40;;
60610;SDS011;46439;51.164;13.572;2023-05-10T05:18:29;3.30;;;2.20;;
60610;SDS011;46439;51.164;13.572;2023-05-10T05:20:57;2.60;;;2.10;;
60610;SDS011;46439;51.164;13.572;2023-05-10T05:23:26;3.60;;;2.30;;
60610;SDS011;46439;51.164;13.572;2023-05-10T05:25:55;2.80;;;2.10;;
60610;SDS011;46439;51.164;13.572;2023-05-10T05:28:23;2.60;;;1.90;;
60610;SDS011;46439;51.164;13.572;2023-05-10T05:30:52;4.00;;;2.30;;
60610;SDS011;46439;51.164;13.572;2023-05-10T05:33:20;3.60;;;2.10;;
60610;SDS011;46439;51.164;13.572;2023-05-10T05:35:49;4.50;;;2.20;;
60610;SDS011;46439;51.164;13.572;2023-05-10T05:38:17;2.90;;;2.00;;
60610;SDS011;46439;51.164;13.572;2023-05-10T05:40:46;2.70;;;2.10;;
60610;SDS011;46439;51.164;13.572;2023-05-10T05:43:14;3.50;;;2.00;;
60610;SDS011;46439;51.164;13.572;2023-05-10T05:45:43;5.00;;;2.40;;
60610;SDS011;46439;51.164;13.572;2023-05-10T05:48:11;4.10;;;2.10;;
60610;SDS011;46439;51.164;13.572;2023-05-10T05:50:40;7.80;;;2.40;;
60610;SDS011;46439;51.164;13.572;2023-05-10T05:53:08;7.40;;;2.30;;
60610;SDS011;46439;51.164;13.572;2023-05-10T05:55:37;4.00;;;2.00;;
60610;SDS011;46439;51.164;13.572;2023-05-10T05:58:06;4.70;;;2.20;;
60610;SDS011;46439;51.164;13.572;2023-05-10T06:00:34;3.50;;;2.10;;
60610;SDS011;46439;51.164;13.572;2023-05-10T06:03:03;4.10;;;2.00;;
60610;SDS011;46439;51.164;13.572;2023-05-10T06:05:31;4.10;;;2.20;;
60610;SDS011;46439;51.164;13.572;2023-05-10T06:08:00;6.90;;;2.20;;
60610;SDS011;46439;51.164;13.572;2023-05-10T06:10:29;8.60;;;2.70;;
60610;SDS011;46439;51.164;13.572;2023-05-10T06:12:57;3.80;;;2.30;;
60610;SDS011;46439;51.164;13.572;2023-05-10T06:15:26;2.90;;;2.40;;
60610;SDS011;46439;51.164;13.572;2023-05-10T06:17:55;2.40;;;1.90;;
60610;SDS011;46439;51.164;13.572;2023-05-10T06:20:23;4.80;;;2.10;;
60610;SDS011;46439;51.164;13.572;2023-05-10T06:22:52;3.10;;;2.00;;
60610;SDS011;46439;51.164;13.572;2023-05-10T06:25:20;3.80;;;2.20;;
60610;SDS011;46439;51.164;13.572;2023-05-10T06:27:49;3.10;;;2.40;;
60610;SDS011;46439;51.164;13.572;2023-05-10T06:30:22;3.70;;;2.10;;
60610;SDS011;46439;51.164;13.572;2023-05-10T06:32:53;7.10;;;2.40;;
60610;SDS011;46439;51.164;13.572;2023-05-10T06:35:22;4.10;;;2.50;;
60610;SDS011;46439;51.164;13.572;2023-05-10T06:37:51;6.50;;;2.20;;
60610;SDS011;46439;51.164;13.572;2023-05-10T06:40:19;4.60;;;2.20;;
60610;SDS011;46439;51.164;13.572;2023-05-10T06:42:48;3.80;;;2.30;;
60610;SDS011;46439;51.164;13.572;2023-05-10T06:45:17;2.50;;;2.30;;
60610;SDS011;46439;51.164;13.572;2023-05-10T06:47:46;5.10;;;2.30;;
60610;SDS011;46439;51.164;13.572;2023-05-10T06:50:14;7.50;;;2.60;;
60610;SDS011;46439;51.164;13.572;2023-05-10T06:52:43;7.10;;;2.40;;
60610;SDS011;46439;51.164;13.572;2023-05-10T06:55:12;5.40;;;2.20;;
60610;SDS011;46439;51.164;13.572;2023-05-10T06:57:40;3.10;;;2.30;;
60610;SDS011;46439;51.164;13.572;2023-05-10T07:00:10;4.70;;;2.10;;
60610;SDS011;46439;51.164;13.572;2023-05-10T07:02:39;4.40;;;2.30;;
60610;SDS011;46439;51.164;13.572;2023-05-10T07:05:08;5.70;;;2.30;;
60610;SDS011;46439;51.164;13.572;2023-05-10T07:07:38;5.30;;;2.10;;
60610;SDS011;46439;51.164;13.572;2023-05-10T07:10:07;4.60;;;2.30;;
60610;SDS011;46439;51.164;13.572;2023-05-10T07:12:37;7.20;;;2.70;;
60610;SDS011;46439;51.164;13.572;2023-05-10T07:15:06;6.30;;;2.60;;
60610;SDS011;46439;51.164;13.572;2023-05-10T07:17:35;3.60;;;2.20;;
60610;SDS011;46439;51.164;13.572;2023-05-10T07:20:05;5.90;;;2.40;;
60610;SDS011;46439;51.164;13.572;2023-05-10T07:22:35;2.70;;;2.20;;
60610;SDS011;46439;51.164;13.572;2023-05-10T07:25:04;3.40;;;2.50;;
60610;SDS011;46439;51.164;13.572;2023-05-10T07:27:34;2.90;;;2.20;;
60610;SDS011;46439;51.164;13.572;2023-05-10T07:30:02;5.10;;;2.40;;
60610;SDS011;46439;51.164;13.572;2023-05-10T07:32:32;6.20;;;2.30;;
60610;SDS011;46439;51.164;13.572;2023-05-10T07:35:00;3.30;;;2.00;;
60610;SDS011;46439;51.164;13.572;2023-05-10T07:37:29;5.10;;;2.50;;
60610;SDS011;46439;51.164;13.572;2023-05-10T07:39:58;4.40;;;2.50;;
60610;SDS011;46439;51.164;13.572;2023-05-10T07:42:27;4.60;;;2.80;;
60610;SDS011;46439;51.164;13.572;2023-05-10T07:44:55;6.40;;;2.40;;
60610;SDS011;46439;51.164;13.572;2023-05-10T07:47:24;3.00;;;2.30;;
60610;SDS011;46439;51.164;13.572;2023-05-10T07:49:53;4.60;;;2.30;;
60610;SDS011;46439;51.164;13.572;2023-05-10T07:52:21;2.90;;;2.20;;
60610;SDS011;46439;51.164;13.572;2023-05-10T07:54:50;4.60;;;2.40;;
60610;SDS011;46439;51.164;13.572;2023-05-10T07:57:19;4.40;;;2.20;;
60610;SDS011;46439;51.164;13.572;2023-05-10T07:59:47;5.00;;;2.20;;
60610;SDS011;46439;51.164;13.572;2023-05-10T08:02:16;3.40;;;2.50;;
60610;SDS011;46439;51.164;13.572;2023-05-10T08:04:44;2.50;;;2.30;;
60610;SDS011;46439;51.164;13.572;2023-05-10T08:07:13;5.40;;;2.50;;
60610;SDS011;46439;51.164;13.572;2023-05-10T08:09:41;6.90;;;2.50;;
60610;SDS011;46439;51.164;13.572;2023-05-10T08:12:10;7.60;;;2.30;;
60610;SDS011;46439;51.164;13.572;2023-05-10T08:14:38;4.50;;;2.40;;
60610;SDS011;46439;51.164;13.572;2023-05-10T08:17:07;3.00;;;2.40;;
60610;SDS011;46439;51.164;13.572;2023-05-10T08:19:35;4.10;;;2.70;;
60610;SDS011;46439;51.164;13.572;2023-05-10T08:22:04;6.00;;;2.50;;
60610;SDS011;46439;51.164;13.572;2023-05-10T08:24:32;2.80;;;2.30;;
60610;SDS011;46439;51.164;13.572;2023-05-10T08:29:31;5.40;;;2.40;;
60610;SDS011;46439;51.164;13.572;2023-05-10T08:32:00;3.80;;;2.30;;
60610;SDS011;46439;51.164;13.572;2023-05-10T08:34:29;5.00;;;2.50;;
60610;SDS011;46439;51.164;13.572;2023-05-10T08:36:57;3.60;;;2.50;;
60610;SDS011;46439;51.164;13.572;2023-05-10T08:39:26;4.90;;;2.80;;
60610;SDS011;46439;51.164;13.572;2023-05-10T08:41:54;5.90;;;2.70;;
60610;SDS011;46439;51.164;13.572;2023-05-10T08:44:28;5.90;;;2.60;;
60610;SDS011;46439;51.164;13.572;2023-05-10T08:46:58;4.70;;;2.70;;
60610;SDS011;46439;51.164;13.572;2023-05-10T08:49:29;6.40;;;2.50;;
60610;SDS011;46439;51.164;13.572;2023-05-10T08:52:01;3.90;;;2.70;;
60610;SDS011;46439;51.164;13.572;2023-05-10T08:57:00;5.30;;;2.40;;
60610;SDS011;46439;51.164;13.572;2023-05-10T08:59:29;5.00;;;2.50;;
60610;SDS011;46439;51.164;13.572;2023-05-10T09:01:59;2.80;;;2.50;;
60610;SDS011;46439;51.164;13.572;2023-05-10T09:04:30;2.30;;;2.10;;
60610;SDS011;46439;51.164;13.572;2023-05-10T09:06:59;2.80;;;2.40;;
60610;SDS011;46439;51.164;13.572;2023-05-10T09:09:28;4.40;;;2.50;;
60610;SDS011;46439;51.164;13.572;2023-05-10T09:11:57;5.50;;;2.70;;
60610;SDS011;46439;51.164;13.572;2023-05-10T09:14:26;4.10;;;2.40;;
60610;SDS011;46439;51.164;13.572;2023-05-10T09:16:55;3.80;;;2.40;;
60610;SDS011;46439;51.164;13.572;2023-05-10T09:19:24;5.40;;;2.50;;
60610;SDS011;46439;51.164;13.572;2023-05-10T09:21:54;4.00;;;2.60;;
60610;SDS011;46439;51.164;13.572;2023-05-10T09:24:26;5.10;;;2.50;;
60610;SDS011;46439;51.164;13.572;2023-05-10T09:26:55;6.90;;;2.70;;
60610;SDS011;46439;51.164;13.572;2023-05-10T09:29:24;4.40;;;2.60;;
60610;SDS011;46439;51.164;13.572;2023-05-10T09:32:05;4.00;;;2.60;;
60610;SDS011;46439;51.164;13.572;2023-05-10T09:34:33;6.20;;;2.80;;
60610;SDS011;46439;51.164;13.572;2023-05-10T09:37:06;5.10;;;2.80;;
60610;SDS011;46439;51.164;13.572;2023-05-10T09:39:36;4.10;;;2.60;;
60610;SDS011;46439;51.164;13.572;2023-05-10T09:42:05;5.30;;;2.50;;
60610;SDS011;46439;51.164;13.572;2023-05-10T09:44:35;5.80;;;2.60;;
60610;SDS011;46439;51.164;13.572;2023-05-10T09:47:05;6.30;;;3.00;;
60610;SDS011;46439;51.164;13.572;2023-05-10T09:49:33;4.70;;;2.90;;
60610;SDS011;46439;51.164;13.572;2023-05-10T09:52:03;4.70;;;2.90;;
60610;SDS011;46439;51.164;13.572;2023-05-10T09:54:33;6.20;;;3.00;;
60610;SDS011;46439;51.164;13.572;2023-05-10T09:57:02;3.70;;;3.00;;
60610;SDS011;46439;51.164;13.572;2023-05-10T09:59:32;4.20;;;2.80;;
60610;SDS011;46439;51.164;13.572;2023-05-10T10:02:02;3.40;;;2.70;;
60610;SDS011;46439;51.164;13.572;2023-05-10T10:04:30;4.80;;;2.70;;
60610;SDS011;46439;51.164;13.572;2023-05-10T10:07:05;4.70;;;2.60;;
60610;SDS011;46439;51.164;13.572;2023-05-10T10:09:34;3.60;;;2.60;;
60610;SDS011;46439;51.164;13.572;2023-05-10T10:12:04;4.70;;;3.20;;
60610;SDS011;46439;51.164;13.572;2023-05-10T10:14:33;3.80;;;2.90;;
60610;SDS011;46439;51.164;13.572;2023-05-10T10:17:02;7.70;;;3.20;;
60610;SDS011;46439;51.164;13.572;2023-05-10T10:19:31;5.80;;;3.00;;
60610;SDS011;46439;51.164;13.572;2023-05-10T10:22:01;4.10;;;2.70;;
60610;SDS011;46439;51.164;13.572;2023-05-10T10:24:30;5.10;;;3.30;;
60610;SDS011;46439;51.164;13.572;2023-05-10T10:27:01;4.90;;;2.80;;
60610;SDS011;46439;51.164;13.572;2023-05-10T10:29:36;5.10;;;3.00;;
60610;SDS011;46439;51.164;13.572;2023-05-10T10:32:17;5.70;;;3.00;;
60610;SDS011;46439;51.164;13.572;2023-05-10T10:34:52;4.30;;;2.70;;
60610;SDS011;46439;51.164;13.572;2023-05-10T10:37:23;3.30;;;2.80;;
60610;SDS011;46439;51.164;13.572;2023-05-10T10:42:54;4.50;;;2.70;;
60610;SDS011;46439;51.164;13.572;2023-05-10T10:45:23;8.80;;;3.30;;
60610;SDS011;46439;51.164;13.572;2023-05-10T10:50:57;4.40;;;2.80;;
60610;SDS011;46439;51.164;13.572;2023-05-10T10:53:27;6.10;;;3.00;;
60610;SDS011;46439;51.164;13.572;2023-05-10T10:56:03;5.80;;;2.90;;
60610;SDS011;46439;51.164;13.572;2023-05-10T10:58:34;4.70;;;2.80;;
60610;SDS011;46439;51.164;13.572;2023-05-10T11:01:12;5.20;;;2.80;;
60610;SDS011;46439;51.164;13.572;2023-05-10T11:03:54;4.30;;;3.00;;
60610;SDS011;46439;51.164;13.572;2023-05-10T11:06:36;6.20;;;2.80;;
60610;SDS011;46439;51.164;13.572;2023-05-10T11:09:06;5.00;;;2.80;;
60610;SDS011;46439;51.164;13.572;2023-05-10T11:11:36;6.10;;;2.90;;
60610;SDS011;46439;51.164;13.572;2023-05-10T11:14:21;4.00;;;2.90;;
60610;SDS011;46439;51.164;13.572;2023-05-10T11:16:50;3.70;;;3.00;;
60610;SDS011;46439;51.164;13.572;2023-05-10T11:19:19;3.70;;;2.70;;
60610;SDS011;46439;51.164;13.572;2023-05-10T11:21:48;4.20;;;2.70;;
60610;SDS011;46439;51.164;13.572;2023-05-10T11:24:18;4.60;;;3.00;;
60610;SDS011;46439;51.164;13.572;2023-05-10T11:26:50;4.80;;;3.00;;
60610;SDS011;46439;51.164;13.572;2023-05-10T11:29:19;23.30;;;3.80;;
60610;SDS011;46439;51.164;13.572;2023-05-10T11:31:48;5.80;;;3.30;;
60610;SDS011;46439;51.164;13.572;2023-05-10T11:34:24;9.60;;;3.30;;
60610;SDS011;46439;51.164;13.572;2023-05-10T11:36:54;13.40;;;3.30;;
60610;SDS011;46439;51.164;13.572;2023-05-10T11:39:27;5.50;;;3.00;;
60610;SDS011;46439;51.164;13.572;2023-05-10T11:41:56;8.60;;;3.00;;
60610;SDS011;46439;51.164;13.572;2023-05-10T11:44:25;3.80;;;2.80;;
60610;SDS011;46439;51.164;13.572;2023-05-10T11:46:59;6.30;;;3.10;;
60610;SDS011;46439;51.164;13.572;2023-05-10T11:49:28;6.40;;;3.00;;
60610;SDS011;46439;51.164;13.572;2023-05-10T11:52:04;4.00;;;2.60;;
60610;SDS011;46439;51.164;13.572;2023-05-10T11:54:33;4.10;;;3.30;;
60610;SDS011;46439;51.164;13.572;2023-05-10T11:57:02;5.80;;;3.00;;
60610;SDS011;46439;51.164;13.572;2023-05-10T11:59:31;3.50;;;2.70;;
60610;SDS011;46439;51.164;13.572;2023-05-10T12:02:00;6.00;;;3.00;;
60610;SDS011;46439;51.164;13.572;2023-05-10T12:04:29;4.90;;;2.90;;
60610;SDS011;46439;51.164;13.572;2023-05-10T12:06:59;3.50;;;3.20;;
60610;SDS011;46439;51.164;13.572;2023-05-10T12:09:27;3.80;;;2.90;;
60610;SDS011;46439;51.164;13.572;2023-05-10T12:11:56;4.30;;;3.10;;
60610;SDS011;46439;51.164;13.572;2023-05-10T12:14:24;8.20;;;3.40;;
60610;SDS011;46439;51.164;13.572;2023-05-10T12:16:53;4.60;;;2.80;;
60610;SDS011;46439;51.164;13.572;2023-05-10T12:19:23;7.30;;;2.50;;
60610;SDS011;46439;51.164;13.572;2023-05-10T12:21:52;5.30;;;3.10;;
60610;SDS011;46439;51.164;13.572;2023-05-10T12:24:20;5.40;;;2.80;;
60610;SDS011;46439;51.164;13.572;2023-05-10T12:26:51;5.30;;;2.70;;
60610;SDS011;46439;51.164;13.572;2023-05-10T12:29:20;7.50;;;3.00;;
60610;SDS011;46439;51.164;13.572;2023-05-10T12:31:53;8.20;;;2.90;;
60610;SDS011;46439;51.164;13.572;2023-05-10T12:34:26;4.10;;;2.70;;
60610;SDS011;46439;51.164;13.572;2023-05-10T12:36:56;5.00;;;2.80;;
60610;SDS011;46439;51.164;13.572;2023-05-10T12:39:26;5.50;;;3.00;;
60610;SDS011;46439;51.164;13.572;2023-05-10T12:42:04;5.60;;;3.90;;
60610;SDS011;46439;51.164;13.572;2023-05-10T12:44:33;8.10;;;4.90;;
60610;SDS011;46439;51.164;13.572;2023-05-10T12:47:02;5.20;;;3.50;;
60610;SDS011;46439;51.164;13.572;2023-05-10T12:49:30;10.10;;;5.80;;
60610;SDS011;46439;51.164;13.572;2023-05-10T12:51:59;6.70;;;3.90;;
60610;SDS011;46439;51.164;13.572;2023-05-10T12:54:27;6.70;;;4.30;;
60610;SDS011;46439;51.164;13.572;2023-05-10T12:56:56;11.90;;;6.40;;
60610;SDS011;46439;51.164;13.572;2023-05-10T12:59:24;7.40;;;5.00;;
60610;SDS011;46439;51.164;13.572;2023-05-10T13:01:52;6.70;;;3.50;;
60610;SDS011;46439;51.164;13.572;2023-05-10T13:04:21;7.90;;;3.70;;
60610;SDS011;46439;51.164;13.572;2023-05-10T13:06:50;5.50;;;3.00;;
60610;SDS011;46439;51.164;13.572;2023-05-10T13:09:18;4.10;;;2.80;;
60610;SDS011;46439;51.164;13.572;2023-05-10T13:11:47;4.20;;;2.80;;
60610;SDS011;46439;51.164;13.572;2023-05-10T13:14:17;3.70;;;2.90;;
60610;SDS011;46439;51.164;13.572;2023-05-10T13:16:46;3.20;;;2.70;;
60610;SDS011;46439;51.164;13.572;2023-05-10T13:19:15;4.40;;;3.40;;
60610;SDS011;46439;51.164;13.572;2023-05-10T13:21:44;4.70;;;3.10;;
60610;SDS011;46439;51.164;13.572;2023-05-10T13:24:12;5.60;;;3.20;;
60610;SDS011;46439;51.164;13.572;2023-05-10T13:26:41;4.50;;;2.70;;
60610;SDS011;46439;51.164;13.572;2023-05-10T13:29:10;3.70;;;2.60;;
60610;SDS011;46439;51.164;13.572;2023-05-10T13:31:38;3.80;;;2.40;;
60610;SDS011;46439;51.164;13.572;2023-05-10T13:34:07;4.90;;;2.40;;
60610;SDS011;46439;51.164;13.572;2023-05-10T13:36:35;2.80;;;2.30;;
60610;SDS011;46439;51.164;13.572;2023-05-10T13:39:04;4.60;;;3.50;;
60610;SDS011;46439;51.164;13.572;2023-05-10T13:41:32;8.00;;;4.30;;
60610;SDS011;46439;51.164;13.572;2023-05-10T13:44:01;5.00;;;3.50;;
60610;SDS011;46439;51.164;13.572;2023-05-10T13:46:29;7.20;;;3.40;;
60610;SDS011;46439;51.164;13.572;2023-05-10T13:48:58;4.10;;;2.60;;
60610;SDS011;46439;51.164;13.572;2023-05-10T13:51:26;5.50;;;3.70;;
60610;SDS011;46439;51.164;13.572;2023-05-10T13:53:55;6.20;;;4.00;;
60610;SDS011;46439;51.164;13.572;2023-05-10T13:56:25;3.80;;;3.10;;
60610;SDS011;46439;51.164;13.572;2023-05-10T13:58:54;4.10;;;2.70;;
60610;SDS011;46439;51.164;13.572;2023-05-10T14:01:22;6.20;;;4.00;;
60610;SDS011;46439;51.164;13.572;2023-05-10T14:03:51;5.50;;;3.10;;
60610;SDS011;46439;51.164;13.572;2023-05-10T14:06:19;7.00;;;2.90;;
60610;SDS011;46439;51.164;13.572;2023-05-10T14:08:48;3.90;;;2.90;;
60610;SDS011;46439;51.164;13.572;2023-05-10T14:11:16;2.50;;;2.30;;
60610;SDS011;46439;51.164;13.572;2023-05-10T14:13:45;2.60;;;2.40;;
60610;SDS011;46439;51.164;13.572;2023-05-10T14:16:13;5.60;;;3.70;;
60610;SDS011;46439;51.164;13.572;2023-05-10T14:18:42;7.50;;;4.80;;
60610;SDS011;46439;51.164;13.572;2023-05-10T14:21:10;10.50;;;8.10;;
60610;SDS011;46439;51.164;13.572;2023-05-10T14:23:39;8.90;;;4.40;;
60610;SDS011;46439;51.164;13.572;2023-05-10T14:26:07;5.80;;;2.70;;
60610;SDS011;46439;51.164;13.572;2023-05-10T14:28:36;9.30;;;5.90;;
60610;SDS011;46439;51.164;13.572;2023-05-10T14:31:04;5.80;;;4.20;;
60610;SDS011;46439;51.164;13.572;2023-05-10T14:33:33;3.60;;;2.30;;
60610;SDS011;46439;51.164;13.572;2023-05-10T14:36:02;4.80;;;2.20;;
60610;SDS011;46439;51.164;13.572;2023-05-10T14:38:31;3.00;;;2.70;;
60610;SDS011;46439;51.164;13.572;2023-05-10T14:40:59;4.70;;;2.80;;
60610;SDS011;46439;51.164;13.572;2023-05-10T14:43:28;4.10;;;2.70;;
60610;SDS011;46439;51.164;13.572;2023-05-10T14:45:57;4.30;;;2.50;;
60610;SDS011;46439;51.164;13.572;2023-05-10T14:48:26;3.00;;;2.30;;
60610;SDS011;46439;51.164;13.572;2023-05-10T14:50:54;6.30;;;2.60;;
60610;SDS011;46439;51.164;13.572;2023-05-10T14:53:23;3.70;;;2.30;;
60610;SDS011;46439;51.164;13.572;2023-05-10T14:55:51;2.80;;;2.50;;
60610;SDS011;46439;51.164;13.572;2023-05-10T14:58:19;3.50;;;2.30;;
60610;SDS011;46439;51.164;13.572;2023-05-10T15:00:48;3.10;;;2.40;;
60610;SDS011;46439;51.164;13.572;2023-05-10T15:03:17;3.40;;;2.30;;
60610;SDS011;46439;51.164;13.572;2023-05-10T15:05:46;4.70;;;2.50;;